Time;durP1;ratioP1;P1;durP2;ratioP2;P2;SDS_P1;SDS_P2;PMS_P1;PMS_P2;Temp;Humidity;BMP_temperature;BMP_pressure;BME280_temperature;BME280_humidity;BME280_pressure;Samples;Min_cycle;Max_cycle;Signal;HPM_P1;HPM_P2
2022/12/30 00:01:17;;;;;;;6.33;4.20;;;3.10;99.90;;;;;;5089632;28;20539;-48
2022/12/30 00:03:46;;;;;;;6.10;3.93;;;3.00;99.90;;;;;;5089186;28;20496;-47
2022/12/30 00:06:16;;;;;;;4.73;4.27;;;2.90;99.90;;;;;;5090227;28;20437;-49
2022/12/30 00:08:49;;;;;;;7.07;4.30;;;2.80;99.90;;;;;;5089753;28;20888;-47
2022/12/30 00:11:18;;;;;;;5.00;4.30;;;2.70;99.90;;;;;;5089824;28;20523;-48
2022/12/30 00:33:23;;;;;;;5.33;4.70;;;2.60;99.90;;;;;;5088294;28;20440;-49
2022/12/30 00:35:51;;;;;;;6.87;4.43;;;2.70;99.90;;;;;;5090095;28;20524;-48
2022/12/30 00:38:18;;;;;;;6.20;3.90;;;2.80;99.90;;;;;;5091300;28;20866;-47
2022/12/30 00:43:26;;;;;;;4.30;3.33;;;2.60;99.90;;;;;;5089191;28;20455;-48
2022/12/30 00:45:53;;;;;;;5.70;4.17;;;2.80;99.90;;;;;;5090749;28;20515;-48
2022/12/30 00:56:36;;;;;;;4.60;3.87;;;2.70;99.90;;;;;;5091292;28;20454;-47
2022/12/30 00:59:04;;;;;;;3.93;3.40;;;2.70;99.90;;;;;;5090787;28;20497;-48
2022/12/30 01:01:31;;;;;;;3.70;2.87;;;2.90;99.90;;;;;;5089827;28;20523;-50
2022/12/30 01:03:58;;;;;;;3.57;3.13;;;3.00;99.90;;;;;;5088311;28;20459;-48
2022/12/30 01:06:26;;;;;;;5.10;3.73;;;2.90;99.90;;;;;;5089284;28;20556;-48
2022/12/30 01:08:53;;;;;;;4.87;3.43;;;2.90;99.90;;;;;;5088978;28;20808;-48
2022/12/30 01:11:19;;;;;;;5.93;4.40;;;2.90;99.90;;;;;;5089196;28;20528;-48
2022/12/30 01:13:46;;;;;;;5.10;4.40;;;2.50;99.90;;;;;;5088655;28;20504;-50
2022/12/30 01:16:15;;;;;;;5.00;4.50;;;2.20;99.90;;;;;;5089829;28;20531;-50
2022/12/30 01:18:43;;;;;;;4.93;3.63;;;2.20;99.90;;;;;;5090640;28;20527;-48
2022/12/30 01:21:10;;;;;;;6.53;4.00;;;2.40;99.90;;;;;;5090682;28;21011;-49
2022/12/30 01:23:38;;;;;;;4.70;3.77;;;2.40;99.90;;;;;;5089853;28;20460;-48
2022/12/30 01:26:07;;;;;;;5.40;3.80;;;2.70;99.90;;;;;;5090215;28;20559;-48
2022/12/30 01:28:36;;;;;;;6.10;5.10;;;2.80;99.90;;;;;;5091128;28;20977;-47
2022/12/30 01:31:06;;;;;;;4.80;4.40;;;2.80;99.90;;;;;;5090972;28;20472;-49
2022/12/30 01:33:33;;;;;;;6.43;4.73;;;2.70;99.90;;;;;;5090527;28;20464;-48
2022/12/30 01:36:00;;;;;;;6.00;5.40;;;2.60;99.90;;;;;;5094010;28;20476;-47
2022/12/30 01:38:29;;;;;;;8.40;3.97;;;2.40;99.90;;;;;;5093912;28;20892;-48
2022/12/30 01:40:58;;;;;;;5.70;4.50;;;2.30;99.90;;;;;;5094146;28;20440;-48
2022/12/30 01:43:42;;;;;;;4.40;4.00;;;2.50;99.90;;;;;;5090322;28;20559;-48
2022/12/30 01:46:13;;;;;;;4.33;3.90;;;2.70;99.90;;;;;;5091157;28;20839;-50
2022/12/30 01:48:40;;;;;;;5.00;3.90;;;2.60;99.90;;;;;;5092419;28;20535;-49
2022/12/30 01:51:10;;;;;;;4.60;3.70;;;2.70;99.90;;;;;;5092462;28;20469;-48
2022/12/30 01:53:41;;;;;;;4.17;3.80;;;2.90;99.90;;;;;;5091444;28;20549;-48
2022/12/30 01:56:13;;;;;;;5.50;4.70;;;2.90;99.90;;;;;;5091297;28;20466;-49
2022/12/30 01:58:45;;;;;;;5.57;3.77;;;2.80;99.90;;;;;;5093509;28;20491;-47
2022/12/30 02:01:12;;;;;;;5.17;4.17;;;2.80;99.90;;;;;;5093635;28;20531;-47
2022/12/30 02:03:44;;;;;;;4.93;3.87;;;2.70;99.90;;;;;;5091715;28;20493;-48
2022/12/30 02:06:12;;;;;;;4.87;4.37;;;2.70;99.90;;;;;;5093498;28;20479;-49
2022/12/30 02:08:39;;;;;;;6.57;4.47;;;2.70;99.90;;;;;;5093545;28;20633;-48
2022/12/30 02:11:07;;;;;;;5.43;4.93;;;2.40;99.90;;;;;;5092314;28;20527;-48
2022/12/30 02:13:36;;;;;;;6.07;4.13;;;2.30;99.90;;;;;;5086875;28;20829;-51
2022/12/30 02:16:20;;;;;;;6.33;4.53;;;2.20;99.90;;;;;;5091890;28;20862;-48
2022/12/30 02:19:01;;;;;;;6.50;4.90;;;2.10;99.90;;;;;;5092198;28;20549;-48
2022/12/30 02:21:48;;;;;;;4.73;4.33;;;2.20;99.90;;;;;;5091302;28;21021;-49
2022/12/30 02:24:59;;;;;;;5.43;3.87;;;2.20;99.90;;;;;;5091313;28;20525;-49
2022/12/30 02:28:14;;;;;;;4.23;3.63;;;2.30;99.90;;;;;;5093582;28;20523;-48
2022/12/30 02:31:18;;;;;;;7.00;3.53;;;2.30;99.90;;;;;;5073313;28;20627;-48
2022/12/30 02:33:54;;;;;;;6.47;3.90;;;2.40;99.90;;;;;;5067916;28;20472;-50
2022/12/30 02:36:27;;;;;;;6.20;3.50;;;2.40;99.90;;;;;;5072890;28;20968;-48
2022/12/30 02:39:03;;;;;;;5.33;3.53;;;2.50;99.90;;;;;;5089571;28;20516;-48
2022/12/30 02:44:39;;;;;;;4.93;3.70;;;2.60;99.90;;;;;;5092690;28;20995;-49
2022/12/30 02:47:14;;;;;;;4.20;3.37;;;2.50;99.90;;;;;;5092680;28;20524;-48
2022/12/30 02:49:43;;;;;;;4.83;3.67;;;2.50;99.90;;;;;;5092782;28;20448;-48
2022/12/30 02:52:14;;;;;;;8.20;3.97;;;2.30;99.90;;;;;;5092472;28;20875;-48
2022/12/30 02:54:42;;;;;;;3.53;3.23;;;2.30;99.90;;;;;;5091573;28;20443;-48
2022/12/30 02:57:27;;;;;;;3.23;2.93;;;2.40;99.90;;;;;;5092496;28;20519;-48
2022/12/30 03:05:54;;;;;;;3.97;2.80;;;2.20;99.90;;;;;;5092328;28;20474;-48
2022/12/30 03:08:28;;;;;;;3.00;2.70;;;2.40;99.90;;;;;;5092475;28;20475;-49
2022/12/30 03:11:16;;;;;;;4.23;3.00;;;2.40;99.90;;;;;;5092030;28;20479;-48
2022/12/30 03:13:51;;;;;;;4.90;2.60;;;2.40;99.90;;;;;;5091543;28;20466;-49
2022/12/30 03:16:24;;;;;;;4.53;2.93;;;2.50;99.90;;;;;;5092323;28;21031;-48
2022/12/30 03:18:54;;;;;;;4.90;3.50;;;2.30;99.90;;;;;;5090760;28;20489;-49
2022/12/30 03:21:23;;;;;;;5.00;3.40;;;2.40;99.90;;;;;;5090661;28;20528;-49
2022/12/30 03:29:28;;;;;;;2.77;2.30;;;2.10;99.90;;;;;;5090614;28;21186;-49
2022/12/30 03:31:56;;;;;;;4.40;2.80;;;2.50;99.90;;;;;;5090735;28;20529;-48
2022/12/30 03:34:25;;;;;;;4.67;3.60;;;2.40;99.90;;;;;;5089980;28;20906;-49
2022/12/30 03:36:57;;;;;;;4.57;3.50;;;2.50;99.90;;;;;;5091927;28;20909;-51
2022/12/30 03:39:29;;;;;;;4.97;3.67;;;2.50;99.90;;;;;;5091613;28;20815;-48
2022/12/30 03:41:56;;;;;;;4.57;3.33;;;2.40;99.90;;;;;;5091792;28;20524;-48
2022/12/30 03:44:23;;;;;;;4.30;3.40;;;2.40;99.90;;;;;;5090802;28;20909;-48
2022/12/30 03:46:51;;;;;;;2.70;2.37;;;2.00;99.90;;;;;;5091558;28;20475;-48
2022/12/30 03:49:19;;;;;;;4.90;2.60;;;2.00;99.90;;;;;;5091857;28;20471;-48
2022/12/30 03:51:47;;;;;;;3.47;2.50;;;2.20;99.90;;;;;;5091559;28;20451;-49
2022/12/30 03:54:14;;;;;;;3.40;2.53;;;2.30;99.90;;;;;;5090723;28;20495;-48
2022/12/30 03:56:41;;;;;;;3.57;2.90;;;2.40;99.90;;;;;;5089880;28;20539;-50
2022/12/30 03:59:08;;;;;;;3.30;3.00;;;2.60;99.90;;;;;;5090434;28;20440;-48
2022/12/30 04:01:35;;;;;;;4.60;3.27;;;2.50;99.90;;;;;;5089750;28;20487;-51
2022/12/30 04:04:02;;;;;;;6.20;2.67;;;2.40;99.90;;;;;;5089208;28;20495;-50
2022/12/30 04:06:29;;;;;;;2.70;2.23;;;2.20;99.90;;;;;;5089884;28;20476;-49
2022/12/30 04:08:57;;;;;;;3.60;2.57;;;2.00;99.90;;;;;;5090040;28;20531;-49
2022/12/30 04:11:24;;;;;;;4.30;2.87;;;2.20;99.90;;;;;;5089442;28;20527;-49
2022/12/30 04:13:52;;;;;;;3.43;2.83;;;2.30;99.90;;;;;;5089442;28;20492;-49
2022/12/30 04:16:19;;;;;;;3.60;2.83;;;2.20;99.90;;;;;;5091097;28;20933;-49
2022/12/30 04:18:46;;;;;;;3.13;2.50;;;2.20;99.90;;;;;;5090950;28;20456;-48
2022/12/30 04:21:13;;;;;;;2.87;2.10;;;2.10;99.90;;;;;;5090651;28;20865;-50
2022/12/30 04:23:40;;;;;;;3.17;2.80;;;2.20;99.90;;;;;;5090832;28;20538;-48
2022/12/30 04:26:08;;;;;;;3.00;2.27;;;2.30;99.90;;;;;;5089457;28;20483;-49
2022/12/30 04:28:35;;;;;;;4.00;2.67;;;2.40;99.90;;;;;;5089793;28;20933;-51
2022/12/30 04:31:02;;;;;;;3.13;2.40;;;2.50;99.90;;;;;;5089684;28;20475;-49
2022/12/30 04:33:29;;;;;;;2.93;2.17;;;2.60;99.90;;;;;;5087000;28;20574;-48
2022/12/30 04:35:56;;;;;;;3.00;2.30;;;2.60;99.90;;;;;;5089285;28;20466;-49
2022/12/30 04:38:23;;;;;;;2.57;2.00;;;2.40;99.90;;;;;;5089824;28;20448;-49
2022/12/30 04:40:49;;;;;;;2.53;2.33;;;2.30;99.90;;;;;;5088658;28;20522;-48
2022/12/30 04:43:18;;;;;;;2.67;2.40;;;2.10;99.90;;;;;;5089978;28;20548;-49
2022/12/30 04:45:45;;;;;;;3.97;2.00;;;2.10;99.90;;;;;;5090672;28;20908;-48
2022/12/30 04:48:11;;;;;;;3.73;2.63;;;2.10;99.90;;;;;;5090528;28;20440;-48
2022/12/30 04:50:41;;;;;;;2.70;2.50;;;2.10;99.90;;;;;;5090861;28;20527;-51
2022/12/30 04:53:08;;;;;;;3.20;2.30;;;2.10;99.90;;;;;;5090055;28;20499;-48
2022/12/30 04:55:35;;;;;;;2.37;2.10;;;2.20;99.90;;;;;;5090339;28;20527;-49
2022/12/30 04:58:02;;;;;;;5.60;1.80;;;2.30;99.90;;;;;;5090935;28;20881;-48
2022/12/30 05:00:31;;;;;;;3.80;2.13;;;2.40;99.90;;;;;;5090817;28;20440;-48
2022/12/30 05:02:58;;;;;;;2.40;2.10;;;2.40;99.90;;;;;;5089862;28;20502;-48
2022/12/30 05:05:25;;;;;;;3.03;2.73;;;2.40;99.90;;;;;;5090703;28;20538;-50
2022/12/30 05:07:53;;;;;;;4.30;2.00;;;2.40;99.90;;;;;;5090828;28;20467;-48
2022/12/30 05:10:20;;;;;;;3.47;2.43;;;2.40;99.90;;;;;;5094894;28;20849;-48
2022/12/30 05:12:47;;;;;;;8.60;5.20;;;2.40;99.90;;;;;;5094102;28;20546;-48
2022/12/30 05:15:13;;;;;;;7.00;4.33;;;1.60;99.90;;;;;;5091934;28;21031;-48
2022/12/30 05:17:42;;;;;;;10.30;5.03;;;1.20;99.90;;;;;;5093003;28;20472;-49
2022/12/30 05:20:10;;;;;;;5.90;5.30;;;1.20;99.90;;;;;;5093137;28;20539;-51
2022/12/30 05:22:36;;;;;;;6.17;5.60;;;1.30;99.90;;;;;;5092823;28;20543;-50
2022/12/30 05:27:48;;;;;;;5.33;4.83;;;1.20;99.90;;;;;;5093227;28;20931;-50
2022/12/30 05:30:15;;;;;;;5.40;4.70;;;1.30;99.90;;;;;;5094243;28;20539;-48
2022/12/30 05:32:43;;;;;;;8.97;5.80;;;1.10;99.90;;;;;;5094048;28;20495;-48
2022/12/30 05:35:10;;;;;;;8.10;5.27;;;1.20;99.90;;;;;;5091587;28;20468;-49
2022/12/30 05:37:37;;;;;;;4.20;3.80;;;1.30;99.90;;;;;;5094331;28;20526;-48
2022/12/30 05:40:05;;;;;;;4.60;3.97;;;1.40;99.90;;;;;;5094150;28;20937;-49
2022/12/30 05:42:33;;;;;;;6.27;4.27;;;1.40;99.90;;;;;;5093960;28;20500;-48
2022/12/30 05:45:00;;;;;;;6.00;4.47;;;1.40;99.90;;;;;;5093309;28;20481;-51
2022/12/30 05:47:27;;;;;;;5.30;4.23;;;1.60;99.90;;;;;;5093608;28;21017;-48
2022/12/30 05:49:55;;;;;;;6.30;4.67;;;1.50;99.90;;;;;;5093746;28;20482;-48
2022/12/30 05:52:22;;;;;;;5.87;3.87;;;1.50;99.90;;;;;;5093853;28;20440;-48
2022/12/30 05:54:49;;;;;;;9.73;5.00;;;1.40;99.90;;;;;;5092136;28;20448;-50
2022/12/30 05:57:16;;;;;;;6.67;4.23;;;1.60;99.90;;;;;;5093582;28;20432;-48
2022/12/30 05:59:42;;;;;;;3.63;3.33;;;1.60;99.90;;;;;;5093821;28;20526;-48
2022/12/30 06:02:09;;;;;;;6.10;4.43;;;1.70;99.90;;;;;;5093641;28;20480;-47
2022/12/30 06:04:37;;;;;;;5.13;4.20;;;1.80;99.90;;;;;;5092664;28;21005;-48
2022/12/30 06:07:05;;;;;;;6.50;5.10;;;1.80;99.90;;;;;;5093294;28;20509;-49
2022/12/30 06:09:32;;;;;;;6.63;4.50;;;1.70;99.90;;;;;;5093580;28;20523;-48
2022/12/30 06:11:59;;;;;;;7.07;5.33;;;1.70;99.90;;;;;;5096598;28;20522;-48
2022/12/30 06:14:26;;;;;;;6.83;5.50;;;1.70;99.90;;;;;;5101167;28;20545;-49
2022/12/30 06:16:53;;;;;;;8.07;6.30;;;1.80;99.90;;;;;;5091820;28;20476;-49
2022/12/30 06:19:19;;;;;;;7.53;5.43;;;1.70;99.90;;;;;;5091672;28;21015;-48
2022/12/30 06:21:46;;;;;;;6.30;4.40;;;1.70;99.90;;;;;;5092072;28;20525;-48
2022/12/30 06:24:15;;;;;;;7.60;6.00;;;1.40;99.90;;;;;;5091091;28;20517;-48
2022/12/30 06:26:41;;;;;;;5.73;4.97;;;1.30;99.90;;;;;;5093049;28;20511;-48
2022/12/30 06:29:08;;;;;;;7.17;4.73;;;1.30;99.90;;;;;;5093536;28;20527;-50
2022/12/30 06:31:35;;;;;;;5.93;3.77;;;1.30;99.90;;;;;;5093377;28;20531;-48
2022/12/30 06:34:02;;;;;;;4.83;4.27;;;1.20;99.90;;;;;;5091069;28;21033;-48
2022/12/30 06:36:29;;;;;;;7.03;6.33;;;1.30;99.90;;;;;;5093266;28;20436;-51
2022/12/30 06:38:56;;;;;;;10.37;7.07;;;1.50;99.90;;;;;;5090795;28;20531;-48
2022/12/30 06:41:24;;;;;;;13.57;12.17;;;1.40;99.90;;;;;;5092489;28;20854;-48
2022/12/30 06:43:51;;;;;;;15.93;11.80;;;1.40;99.90;;;;;;5089880;28;20507;-49
2022/12/30 06:46:18;;;;;;;5.00;4.40;;;1.40;99.90;;;;;;5091414;28;21101;-49
2022/12/30 06:48:45;;;;;;;4.60;3.80;;;1.30;99.90;;;;;;5093876;28;20463;-50
2022/12/30 06:51:12;;;;;;;6.53;4.90;;;1.30;99.90;;;;;;5101241;28;20531;-51
2022/12/30 06:53:39;;;;;;;4.83;3.60;;;1.30;99.90;;;;;;5091010;28;20492;-48
2022/12/30 06:56:06;;;;;;;4.87;3.97;;;1.30;99.90;;;;;;5091861;28;21001;-48
2022/12/30 06:58:35;;;;;;;3.80;3.13;;;1.30;99.90;;;;;;5090286;28;21032;-48
2022/12/30 07:01:02;;;;;;;3.60;2.97;;;1.30;99.90;;;;;;5090209;28;20858;-49
2022/12/30 07:03:28;;;;;;;3.80;3.40;;;1.40;99.90;;;;;;5090243;28;20552;-48
2022/12/30 07:05:55;;;;;;;4.40;3.20;;;1.40;99.90;;;;;;5091054;28;20554;-48
2022/12/30 07:08:22;;;;;;;5.10;4.60;;;1.50;99.90;;;;;;5090675;28;20539;-49
2022/12/30 07:10:49;;;;;;;5.93;4.00;;;1.50;99.90;;;;;;5090893;28;20577;-50
2022/12/30 07:13:17;;;;;;;6.83;4.83;;;1.50;99.90;;;;;;5093380;28;20565;-48
2022/12/30 07:15:45;;;;;;;7.20;5.80;;;1.40;99.90;;;;;;5087815;28;20552;-48
2022/12/30 07:18:12;;;;;;;6.03;5.50;;;1.20;99.90;;;;;;5091145;28;20467;-48
2022/12/30 07:20:39;;;;;;;6.73;5.90;;;1.00;99.90;;;;;;5088106;28;20522;-49
2022/12/30 07:23:07;;;;;;;4.60;4.13;;;0.90;99.90;;;;;;5088341;28;20491;-48
2022/12/30 07:25:33;;;;;;;4.27;3.87;;;1.10;99.90;;;;;;5083781;28;20448;-49
2022/12/30 07:28:01;;;;;;;5.13;4.23;;;1.10;99.90;;;;;;5089631;28;20514;-50
2022/12/30 07:30:30;;;;;;;5.43;4.10;;;1.10;99.90;;;;;;5091306;28;20472;-51
2022/12/30 07:32:58;;;;;;;6.57;5.40;;;1.10;99.90;;;;;;5089329;28;20527;-50
2022/12/30 07:35:25;;;;;;;6.30;5.67;;;1.10;99.90;;;;;;5088727;28;20475;-49
2022/12/30 07:37:52;;;;;;;5.67;3.93;;;1.00;99.90;;;;;;5090085;28;21027;-48
2022/12/30 07:40:19;;;;;;;5.50;4.20;;;1.30;99.90;;;;;;5087378;28;20607;-49
2022/12/30 07:42:46;;;;;;;4.30;3.87;;;1.30;99.90;;;;;;5089456;28;20467;-48
2022/12/30 07:45:13;;;;;;;5.27;4.77;;;1.20;99.90;;;;;;5084239;28;20472;-50
2022/12/30 07:47:42;;;;;;;5.80;4.13;;;1.20;99.90;;;;;;5088138;28;20507;-48
2022/12/30 07:50:12;;;;;;;4.40;3.67;;;1.20;99.90;;;;;;5088482;28;20448;-50
2022/12/30 07:52:39;;;;;;;5.57;3.93;;;1.40;99.90;;;;;;5085505;28;21004;-49
2022/12/30 07:55:07;;;;;;;6.87;3.60;;;1.30;99.90;;;;;;5087028;28;20606;-48
2022/12/30 07:57:34;;;;;;;5.10;3.27;;;1.40;99.90;;;;;;5091528;28;20525;-48
2022/12/30 08:00:01;;;;;;;4.17;3.30;;;1.50;99.90;;;;;;5088575;28;20470;-48
2022/12/30 08:02:28;;;;;;;4.73;4.20;;;1.50;99.90;;;;;;5090653;28;20555;-51
2022/12/30 08:04:55;;;;;;;11.77;8.80;;;1.60;99.90;;;;;;5087463;28;20519;-49
2022/12/30 08:07:23;;;;;;;17.57;10.50;;;1.30;99.90;;;;;;5088432;28;20551;-48
2022/12/30 08:09:50;;;;;;;11.87;9.00;;;1.10;99.90;;;;;;5079539;28;20985;-48
2022/12/30 08:12:17;;;;;;;8.73;6.40;;;0.70;99.90;;;;;;5088002;28;20531;-48
2022/12/30 08:14:44;;;;;;;8.77;6.30;;;0.60;99.90;;;;;;5085505;28;20534;-48
2022/12/30 08:17:11;;;;;;;6.50;5.60;;;0.70;99.90;;;;;;5088885;28;20981;-51
2022/12/30 08:19:38;;;;;;;7.63;6.13;;;0.90;99.90;;;;;;5087420;28;20436;-49
2022/12/30 08:22:05;;;;;;;8.50;5.90;;;0.90;99.90;;;;;;5086717;28;20535;-48
2022/12/30 08:24:33;;;;;;;5.30;4.33;;;1.00;99.90;;;;;;5089345;28;20546;-50
2022/12/30 08:27:00;;;;;;;5.47;4.73;;;1.20;99.90;;;;;;5087583;28;20555;-48
2022/12/30 08:29:27;;;;;;;6.90;4.70;;;1.30;99.90;;;;;;5088387;28;20448;-48
2022/12/30 08:31:57;;;;;;;8.57;5.63;;;1.30;99.90;;;;;;5087499;28;20490;-48
2022/12/30 08:34:25;;;;;;;6.33;5.63;;;1.30;99.90;;;;;;5085724;28;20499;-49
2022/12/30 08:36:52;;;;;;;6.83;4.43;;;1.30;99.90;;;;;;5088766;28;20435;-48
2022/12/30 08:39:19;;;;;;;5.27;4.13;;;1.30;99.90;;;;;;5086815;28;20527;-50
2022/12/30 08:41:47;;;;;;;5.27;4.73;;;1.30;99.90;;;;;;5085267;28;20594;-49
2022/12/30 08:44:15;;;;;;;6.13;5.20;;;1.30;99.90;;;;;;5087472;28;20504;-48
2022/12/30 08:46:42;;;;;;;7.00;5.40;;;1.30;99.90;;;;;;5090015;28;20551;-48
2022/12/30 08:49:10;;;;;;;5.93;5.33;;;1.30;99.90;;;;;;5087536;28;20878;-50
2022/12/30 08:51:37;;;;;;;5.17;4.43;;;1.40;99.90;;;;;;5090127;28;20467;-51
2022/12/30 08:54:05;;;;;;;4.30;3.70;;;1.40;99.90;;;;;;5090949;28;20459;-49
2022/12/30 08:56:35;;;;;;;6.20;5.60;;;1.40;99.90;;;;;;5089808;28;20452;-49
2022/12/30 08:59:04;;;;;;;6.10;5.50;;;1.40;99.90;;;;;;5092146;28;20975;-50
2022/12/30 09:01:33;;;;;;;5.80;5.20;;;1.40;99.90;;;;;;5092553;28;20515;-48
2022/12/30 09:04:03;;;;;;;5.23;4.60;;;1.50;99.90;;;;;;5091607;28;20471;-51
2022/12/30 09:06:31;;;;;;;9.03;6.13;;;1.40;99.90;;;;;;5092819;28;20870;-48
2022/12/30 09:08:59;;;;;;;5.10;4.60;;;1.40;99.90;;;;;;5092445;28;20482;-48
2022/12/30 09:11:28;;;;;;;5.30;4.80;;;1.40;99.90;;;;;;5091816;28;20464;-50
2022/12/30 09:13:56;;;;;;;4.57;4.17;;;1.50;99.90;;;;;;5092041;28;20539;-48
2022/12/30 09:16:24;;;;;;;9.13;4.90;;;1.70;99.90;;;;;;5092776;28;20909;-48
2022/12/30 09:18:52;;;;;;;6.57;5.87;;;1.80;99.90;;;;;;5093580;28;20484;-48
2022/12/30 09:21:20;;;;;;;10.43;6.50;;;1.80;99.90;;;;;;5094300;28;20482;-48
2022/12/30 09:23:47;;;;;;;6.10;3.77;;;1.50;99.90;;;;;;5093881;28;20495;-48
2022/12/30 09:26:16;;;;;;;3.53;3.23;;;1.60;99.90;;;;;;5090900;28;20479;-49
2022/12/30 09:28:43;;;;;;;3.73;3.20;;;1.80;99.90;;;;;;5089600;28;20527;-49
2022/12/30 09:31:10;;;;;;;3.87;3.07;;;1.80;99.90;;;;;;5086628;28;20485;-48
2022/12/30 09:33:39;;;;;;;3.77;3.47;;;2.00;99.90;;;;;;5083952;28;20656;-48
2022/12/30 09:36:06;;;;;;;4.90;4.50;;;2.00;99.90;;;;;;5089824;28;20535;-48
2022/12/30 09:38:34;;;;;;;5.53;4.77;;;1.80;99.90;;;;;;5090223;28;20444;-50
2022/12/30 09:41:05;;;;;;;9.67;7.13;;;1.90;99.90;;;;;;5090519;28;20535;-47
2022/12/30 09:43:38;;;;;;;10.90;6.40;;;1.80;99.90;;;;;;5089730;28;20563;-49
2022/12/30 09:46:17;;;;;;;6.87;5.63;;;1.90;99.90;;;;;;5090756;28;21193;-48
2022/12/30 09:48:54;;;;;;;6.43;5.47;;;1.90;99.90;;;;;;5090578;28;20522;-49
2022/12/30 09:51:26;;;;;;;5.30;4.50;;;1.80;99.90;;;;;;5089715;28;20608;-49
2022/12/30 09:53:56;;;;;;;5.93;4.73;;;1.90;99.90;;;;;;5088872;28;20530;-48
2022/12/30 09:56:30;;;;;;;5.10;4.33;;;1.80;99.90;;;;;;5090274;28;20531;-48
2022/12/30 09:59:17;;;;;;;4.90;4.10;;;2.00;99.90;;;;;;5085970;28;20447;-48
2022/12/30 10:01:45;;;;;;;4.20;3.37;;;2.10;99.90;;;;;;5085075;28;20492;-51
2022/12/30 10:04:16;;;;;;;3.30;3.00;;;2.20;99.90;;;;;;5089904;28;20852;-49
2022/12/30 10:06:54;;;;;;;4.40;2.80;;;2.20;99.90;;;;;;5090430;28;20472;-49
2022/12/30 10:09:41;;;;;;;3.87;2.70;;;2.20;99.90;;;;;;5090432;28;20532;-48
2022/12/30 10:12:36;;;;;;;4.30;3.33;;;2.20;99.90;;;;;;5089427;28;20979;-49
2022/12/30 10:15:21;;;;;;;3.37;3.03;;;2.30;99.90;;;;;;5079812;28;20559;-50
2022/12/30 10:17:59;;;;;;;4.77;3.00;;;2.40;99.90;;;;;;5088948;28;20464;-50
2022/12/30 10:20:47;;;;;;;5.47;3.40;;;2.60;99.90;;;;;;5086990;28;20917;-49
2022/12/30 10:23:21;;;;;;;3.83;3.53;;;2.80;99.90;;;;;;5086248;28;20547;-50
2022/12/30 10:25:57;;;;;;;5.10;3.70;;;3.00;99.90;;;;;;5088591;28;20435;-48
2022/12/30 10:28:33;;;;;;;4.00;3.37;;;3.00;99.90;;;;;;5085752;28;21017;-49
2022/12/30 10:31:02;;;;;;;3.67;2.63;;;3.20;99.90;;;;;;5085637;28;20468;-48
2022/12/30 10:33:32;;;;;;;3.83;2.53;;;3.30;99.90;;;;;;5085534;28;20552;-50
2022/12/30 10:36:11;;;;;;;8.00;4.50;;;3.60;99.90;;;;;;5085797;28;20438;-48
2022/12/30 10:38:39;;;;;;;6.17;3.93;;;3.80;99.90;;;;;;5088999;28;20552;-51
2022/12/30 10:41:16;;;;;;;6.00;3.77;;;3.90;99.90;;;;;;5089171;28;20475;-51
2022/12/30 10:43:51;;;;;;;5.23;2.60;;;3.80;99.90;;;;;;5087799;28;20552;-49
2022/12/30 10:46:32;;;;;;;3.90;2.10;;;3.90;99.90;;;;;;5089535;28;20566;-50
2022/12/30 10:49:37;;;;;;;3.00;2.33;;;4.10;99.90;;;;;;5088695;28;21021;-48
2022/12/30 10:52:09;;;;;;;3.43;2.40;;;4.30;99.90;;;;;;5087473;28;20478;-49
2022/12/30 10:54:36;;;;;;;4.70;2.47;;;4.40;99.90;;;;;;5086751;28;20533;-48
2022/12/30 10:57:03;;;;;;;5.63;3.30;;;4.60;99.90;;;;;;5088670;28;20454;-49
2022/12/30 10:59:34;;;;;;;3.00;2.70;;;4.70;99.90;;;;;;5088275;28;20818;-49
2022/12/30 11:02:12;;;;;;;3.10;2.60;;;4.80;99.90;;;;;;5086663;28;20454;-50
2022/12/30 11:04:41;;;;;;;5.80;2.70;;;4.80;99.90;;;;;;5085419;28;20519;-48
2022/12/30 11:07:11;;;;;;;3.07;2.77;;;4.60;99.90;;;;;;5087665;28;20485;-49
2022/12/30 11:09:39;;;;;;;4.40;2.87;;;4.60;99.90;;;;;;5087110;28;21015;-48
2022/12/30 11:15:07;;;;;;;7.10;3.90;;;4.60;99.90;;;;;;5084982;28;20437;-50
2022/12/30 11:17:40;;;;;;;6.33;3.70;;;4.70;99.90;;;;;;5088139;28;20884;-48
2022/12/30 11:20:23;;;;;;;4.60;4.17;;;4.80;99.90;;;;;;5086720;28;20458;-50
2022/12/30 11:22:54;;;;;;;9.10;4.40;;;4.80;99.90;;;;;;5091845;28;20541;-49
2022/12/30 11:25:27;;;;;;;5.77;4.50;;;4.80;99.90;;;;;;5087654;28;20469;-50
2022/12/30 11:27:56;;;;;;;6.27;3.97;;;4.90;99.90;;;;;;5085418;28;20480;-48
2022/12/30 11:30:25;;;;;;;6.97;4.00;;;4.90;99.90;;;;;;5087081;28;20816;-49
2022/12/30 11:32:54;;;;;;;5.40;3.60;;;4.90;99.90;;;;;;5087683;28;20837;-47
2022/12/30 11:35:38;;;;;;;6.07;3.90;;;4.90;99.90;;;;;;5088432;28;20531;-50
2022/12/30 11:38:33;;;;;;;7.63;4.10;;;5.00;99.90;;;;;;5088362;28;20965;-48
2022/12/30 11:41:21;;;;;;;4.43;3.60;;;5.10;99.90;;;;;;5087580;28;20441;-50
2022/12/30 11:43:49;;;;;;;3.63;3.33;;;5.10;99.90;;;;;;5087379;28;20784;-50
2022/12/30 11:46:18;;;;;;;6.03;3.63;;;5.20;99.90;;;;;;5088563;28;20527;-48
2022/12/30 11:48:48;;;;;;;8.73;3.77;;;5.30;99.90;;;;;;5088036;28;20854;-49
2022/12/30 11:51:18;;;;;;;3.03;2.73;;;5.30;99.90;;;;;;5086992;28;20931;-50
2022/12/30 11:53:48;;;;;;;5.57;3.40;;;5.30;99.90;;;;;;5086760;28;20473;-49
2022/12/30 11:56:21;;;;;;;6.40;3.83;;;5.40;99.90;;;;;;5088502;28;20967;-49
2022/12/30 11:58:49;;;;;;;4.80;3.50;;;5.50;99.90;;;;;;5087864;28;20530;-51
2022/12/30 12:01:16;;;;;;;4.23;3.80;;;5.50;99.90;;;;;;5087944;28;20908;-48
2022/12/30 12:03:52;;;;;;;4.80;3.53;;;5.60;99.90;;;;;;5086163;28;20848;-48
2022/12/30 12:06:19;;;;;;;6.07;3.80;;;5.70;99.90;;;;;;5088119;28;20531;-49
2022/12/30 12:08:55;;;;;;;4.80;3.93;;;5.70;99.90;;;;;;5088623;28;20981;-48
2022/12/30 12:11:28;;;;;;;4.83;3.67;;;5.70;99.90;;;;;;5088563;28;20533;-49
2022/12/30 12:14:03;;;;;;;6.40;3.93;;;5.80;99.90;;;;;;5085034;28;20451;-48
2022/12/30 12:16:38;;;;;;;5.60;4.07;;;5.90;99.90;;;;;;5085395;28;20439;-50
2022/12/30 12:19:17;;;;;;;7.60;3.67;;;6.00;99.90;;;;;;5086662;28;20737;-48
2022/12/30 12:21:45;;;;;;;5.70;4.47;;;5.90;99.90;;;;;;5087294;28;20447;-51
2022/12/30 12:24:20;;;;;;;4.90;4.40;;;5.90;99.90;;;;;;5086095;28;20559;-49
2022/12/30 12:26:53;;;;;;;5.73;3.73;;;6.00;99.90;;;;;;5085875;28;20454;-48
2022/12/30 12:29:20;;;;;;;6.10;3.60;;;5.90;99.90;;;;;;5087774;28;20478;-46
2022/12/30 12:32:19;;;;;;;4.37;3.77;;;5.90;99.90;;;;;;5088461;28;20530;-47
2022/12/30 12:35:00;;;;;;;6.43;4.10;;;5.90;99.90;;;;;;5087271;28;20524;-46
2022/12/30 12:37:40;;;;;;;8.40;4.70;;;6.00;99.90;;;;;;5087468;28;20516;-44
2022/12/30 12:40:27;;;;;;;4.00;3.33;;;6.00;99.90;;;;;;5086652;28;21020;-47
2022/12/30 12:43:02;;;;;;;7.67;3.93;;;6.00;99.90;;;;;;5065771;28;20496;-45
2022/12/30 12:45:44;;;;;;;7.93;3.73;;;6.00;99.90;;;;;;5081749;28;20522;-46
2022/12/30 12:48:46;;;;;;;4.77;3.20;;;6.10;99.90;;;;;;5086698;28;20598;-46
2022/12/30 12:51:29;;;;;;;3.23;2.93;;;6.10;99.90;;;;;;5085565;28;20443;-50
2022/12/30 12:54:11;;;;;;;3.87;2.80;;;6.10;99.90;;;;;;5086519;28;20539;-47
2022/12/30 12:56:51;;;;;;;4.33;3.77;;;6.10;99.90;;;;;;5086967;28;20928;-48
2022/12/30 12:59:37;;;;;;;6.73;4.37;;;6.10;99.90;;;;;;5085613;28;20431;-46
2022/12/30 13:02:21;;;;;;;4.20;3.43;;;6.10;99.90;;;;;;5065340;28;20949;-46
2022/12/30 13:04:57;;;;;;;5.10;3.70;;;6.20;99.90;;;;;;5083818;28;20470;-48
2022/12/30 13:07:36;;;;;;;5.10;3.93;;;6.20;99.90;;;;;;5086359;28;20478;-46
2022/12/30 13:10:24;;;;;;;6.00;4.13;;;6.10;99.90;;;;;;5086357;28;20532;-49
2022/12/30 13:13:02;;;;;;;6.87;4.67;;;6.20;99.90;;;;;;5087098;28;21178;-44
2022/12/30 13:15:35;;;;;;;7.53;4.73;;;6.20;99.90;;;;;;5086796;28;20452;-49
2022/12/30 13:18:06;;;;;;;8.77;4.37;;;6.20;99.90;;;;;;5087455;28;21050;-47
2022/12/30 13:20:48;;;;;;;7.00;5.10;;;6.20;99.90;;;;;;5087432;28;20454;-49
2022/12/30 13:23:19;;;;;;;11.73;9.13;;;6.20;99.90;;;;;;5086710;28;20491;-49
2022/12/30 13:25:53;;;;;;;6.83;5.90;;;6.20;99.90;;;;;;5086728;28;20982;-48
2022/12/30 13:28:23;;;;;;;6.90;3.90;;;6.30;99.90;;;;;;5086950;28;20517;-49
2022/12/30 13:31:09;;;;;;;5.10;4.30;;;6.30;99.90;;;;;;5090578;28;20443;-47
2022/12/30 13:33:48;;;;;;;6.30;4.70;;;6.30;99.90;;;;;;5090241;28;20474;-48
2022/12/30 13:36:22;;;;;;;5.70;4.10;;;6.20;99.90;;;;;;5090673;28;20459;-46
2022/12/30 13:39:02;;;;;;;7.80;4.13;;;6.20;99.90;;;;;;5092057;28;20527;-47
2022/12/30 13:42:05;;;;;;;6.70;4.13;;;6.20;99.90;;;;;;5091897;28;20479;-48
2022/12/30 13:44:37;;;;;;;9.67;4.57;;;6.10;99.90;;;;;;5066045;28;20546;-48
2022/12/30 13:47:06;;;;;;;5.03;4.57;;;6.10;99.90;;;;;;5092772;28;20501;-47
2022/12/30 13:49:35;;;;;;;6.17;5.20;;;6.10;99.90;;;;;;5092287;28;20472;-49
2022/12/30 13:52:05;;;;;;;6.97;4.93;;;6.00;99.90;;;;;;5092175;28;20479;-48
2022/12/30 13:54:33;;;;;;;6.60;4.30;;;5.80;99.90;;;;;;5092180;28;20522;-47
2022/12/30 13:57:02;;;;;;;4.67;4.17;;;5.70;99.90;;;;;;5093766;28;20957;-47
2022/12/30 13:59:33;;;;;;;4.73;4.03;;;5.70;99.90;;;;;;5094129;28;20440;-47
2022/12/30 14:02:37;;;;;;;6.47;4.30;;;5.60;99.90;;;;;;5093087;28;20511;-47
2022/12/30 14:05:46;;;;;;;6.67;4.57;;;5.20;99.90;;;;;;5091639;28;20533;-48
2022/12/30 14:08:42;;;;;;;5.47;4.17;;;5.30;99.90;;;;;;5079197;28;20510;-48
2022/12/30 14:11:10;;;;;;;9.20;5.80;;;5.30;99.90;;;;;;5091881;28;20913;-49